BAW81 EGLL-DGAA
Flight info
| Callsign | BAW81 |
|---|---|
| Flight time | 6h 8m |
| Altitude | 33000 |
| Route | MODMI M185 MID L151 SITET UN859 SOPIL DCT BALAN DCT EVPOK DCT NARAK DCT GAI DCT LOMRA DCT ROCAN DCT PUMAL DCT XEPLA DCT BCN DCT GARBI DCT LARPA DCT TOLSO DCT LISAS DCT MJV N859 MOGIL UB31 ZEM/N0497F340 UZ333 KAHIL UB726 GHA/N0493F350 UA615 TMS UA604 EREBO/N0499F360 DCT MIGNI DCT ABALA DCT IPUTA DCT TATAT DCT KILMO DCT LITEX LITEX1B |
| Aircraft | A35K/H-SDE2E3GHIJ1J3J4J5LM1ORWXY/LB1D1 |
Departure
| Time | 2026-05-07 07:32 |
|---|---|
| Airport | London Heathrow Airport (EGLL) |
Arrival
| Time | 2026-05-07 13:41 |
|---|---|
| Airport | Kotoka International Airport (DGAA) |
| Time | Latitude | Longitude | Altitude | Speed | Heading |
|---|---|---|---|---|---|
| 2026-05-07 07:15 | 51.47181 | -0.48244 | 93 ft | 0 kts | 89° |
| 2026-05-07 07:27 | 51.47181 | -0.48252 | 92 ft | 3 kts | 89° |
| 2026-05-07 07:27 | 51.47181 | -0.48282 | 94 ft | 3 kts | 99° |
| 2026-05-07 07:27 | 51.47186 | -0.48311 | 93 ft | 3 kts | 116° |
| 2026-05-07 07:27 | 51.47196 | -0.48337 | 93 ft | 3 kts | 133° |
| 2026-05-07 07:28 | 51.47210 | -0.48357 | 94 ft | 3 kts | 149° |
| 2026-05-07 07:28 | 51.47226 | -0.48370 | 95 ft | 3 kts | 165° |
| 2026-05-07 07:28 | 51.47229 | -0.48371 | 94 ft | 0 kts | 166° |
| 2026-05-07 07:29 | 51.47228 | -0.48370 | 94 ft | 1 kts | 166° |
| 2026-05-07 07:29 | 51.47191 | -0.48362 | 92 ft | 10 kts | 176° |
| 2026-05-07 07:29 | 51.47091 | -0.48359 | 93 ft | 17 kts | 179° |
| 2026-05-07 07:30 | 51.46974 | -0.48358 | 95 ft | 17 kts | 180° |
| 2026-05-07 07:30 | 51.46855 | -0.48357 | 95 ft | 17 kts | 179° |
| 2026-05-07 07:30 | 51.46752 | -0.48405 | 95 ft | 15 kts | 239° |
| 2026-05-07 07:30 | 51.46741 | -0.48567 | 92 ft | 15 kts | 267° |
| 2026-05-07 07:31 | 51.46726 | -0.48715 | 97 ft | 11 kts | 229° |
| 2026-05-07 07:31 | 51.46656 | -0.48747 | 94 ft | 12 kts | 191° |
| 2026-05-07 07:31 | 51.46565 | -0.48782 | 94 ft | 15 kts | 192° |
| 2026-05-07 07:31 | 51.46481 | -0.48680 | 97 ft | 20 kts | 94° |
| 2026-05-07 07:32 | 51.46480 | -0.48291 | 95 ft | 62 kts | 90° |
| 2026-05-07 07:32 | 51.46482 | -0.47253 | 93 ft | 123 kts | 90° |
| 2026-05-07 07:32 | 51.46486 | -0.45612 | 113 ft | 172 kts | 90° |
| 2026-05-07 07:32 | 51.46498 | -0.43732 | 807 ft | 168 kts | 89° |
| 2026-05-07 07:33 | 51.46293 | -0.41842 | 1356 ft | 180 kts | 110° |
| 2026-05-07 07:33 | 51.45708 | -0.39956 | 1539 ft | 199 kts | 124° |
| 2026-05-07 07:33 | 51.44603 | -0.38467 | 1711 ft | 221 kts | 154° |
| 2026-05-07 07:33 | 51.43095 | -0.37554 | 1962 ft | 241 kts | 162° |
| 2026-05-07 07:34 | 51.41471 | -0.36726 | 2515 ft | 247 kts | 162° |
| 2026-05-07 07:34 | 51.39764 | -0.36273 | 3079 ft | 252 kts | 182° |
| 2026-05-07 07:34 | 51.38066 | -0.36965 | 3679 ft | 254 kts | 204° |
| 2026-05-07 07:34 | 51.36468 | -0.38199 | 4273 ft | 257 kts | 207° |
| 2026-05-07 07:35 | 51.34858 | -0.39492 | 4878 ft | 259 kts | 207° |
| 2026-05-07 07:35 | 51.33256 | -0.40759 | 5491 ft | 261 kts | 207° |
| 2026-05-07 07:35 | 51.31611 | -0.42046 | 6132 ft | 264 kts | 207° |
| 2026-05-07 07:35 | 51.29950 | -0.43354 | 6720 ft | 267 kts | 207° |
| 2026-05-07 07:36 | 51.28268 | -0.44681 | 7316 ft | 271 kts | 207° |
| 2026-05-07 07:36 | 51.26569 | -0.46028 | 7928 ft | 274 kts | 207° |
| 2026-05-07 07:36 | 51.24846 | -0.47409 | 8553 ft | 278 kts | 207° |
| 2026-05-07 07:36 | 51.23105 | -0.48804 | 9167 ft | 282 kts | 207° |
| 2026-05-07 07:37 | 51.21353 | -0.50200 | 9783 ft | 286 kts | 206° |
| 2026-05-07 07:37 | 51.19552 | -0.51604 | 10314 ft | 293 kts | 206° |
| 2026-05-07 07:37 | 51.17666 | -0.53057 | 10587 ft | 309 kts | 206° |
| 2026-05-07 07:37 | 51.15676 | -0.54585 | 10844 ft | 325 kts | 206° |
| 2026-05-07 07:38 | 51.13582 | -0.56194 | 11103 ft | 341 kts | 206° |
| 2026-05-07 07:38 | 51.11425 | -0.57854 | 11367 ft | 355 kts | 206° |
| 2026-05-07 07:38 | 51.09130 | -0.59500 | 11632 ft | 369 kts | 201° |
| 2026-05-07 07:38 | 51.06613 | -0.60585 | 11949 ft | 381 kts | 189° |
| 2026-05-07 07:39 | 51.03953 | -0.60734 | 12476 ft | 386 kts | 175° |
| 2026-05-07 07:39 | 51.01315 | -0.59850 | 13078 ft | 390 kts | 163° |
| 2026-05-07 07:39 | 50.98737 | -0.58427 | 13665 ft | 394 kts | 159° |
| 2026-05-07 07:39 | 50.96182 | -0.56763 | 14189 ft | 398 kts | 157° |
| 2026-05-07 07:40 | 50.93637 | -0.54996 | 14709 ft | 401 kts | 156° |
| 2026-05-07 07:40 | 50.91073 | -0.53200 | 15223 ft | 404 kts | 157° |
| 2026-05-07 07:40 | 50.88483 | -0.51411 | 15754 ft | 407 kts | 157° |
| 2026-05-07 07:40 | 50.85865 | -0.49637 | 16271 ft | 410 kts | 158° |
| 2026-05-07 07:41 | 50.83251 | -0.47896 | 16782 ft | 413 kts | 158° |
| 2026-05-07 07:41 | 50.80586 | -0.46141 | 17301 ft | 416 kts | 158° |
| 2026-05-07 07:41 | 50.77885 | -0.44374 | 17818 ft | 420 kts | 158° |
| 2026-05-07 07:41 | 50.75174 | -0.42606 | 18337 ft | 423 kts | 158° |
| 2026-05-07 07:42 | 50.72433 | -0.40821 | 18791 ft | 427 kts | 158° |
| 2026-05-07 07:42 | 50.69707 | -0.39046 | 19257 ft | 430 kts | 158° |
| 2026-05-07 07:42 | 50.66926 | -0.37235 | 19742 ft | 433 kts | 158° |
| 2026-05-07 07:42 | 50.64132 | -0.35419 | 20240 ft | 436 kts | 158° |
| 2026-05-07 07:43 | 50.61312 | -0.33586 | 20730 ft | 439 kts | 158° |
| 2026-05-07 07:43 | 50.58471 | -0.31742 | 21212 ft | 442 kts | 158° |
| 2026-05-07 07:43 | 50.55609 | -0.29887 | 21681 ft | 445 kts | 158° |
| 2026-05-07 07:43 | 50.52727 | -0.28022 | 22173 ft | 448 kts | 159° |
| 2026-05-07 07:44 | 50.49831 | -0.26150 | 22635 ft | 452 kts | 159° |
| 2026-05-07 07:44 | 50.46912 | -0.24267 | 23105 ft | 455 kts | 159° |
| 2026-05-07 07:44 | 50.43998 | -0.22388 | 23576 ft | 458 kts | 159° |
| 2026-05-07 07:44 | 50.41029 | -0.20477 | 23967 ft | 462 kts | 159° |
| 2026-05-07 07:45 | 50.38047 | -0.18561 | 24384 ft | 465 kts | 159° |
| 2026-05-07 07:45 | 50.35041 | -0.16630 | 24795 ft | 467 kts | 159° |
| 2026-05-07 07:45 | 50.32021 | -0.14694 | 25193 ft | 469 kts | 159° |
| 2026-05-07 07:45 | 50.28989 | -0.12753 | 25597 ft | 472 kts | 159° |
| 2026-05-07 07:46 | 50.25980 | -0.10829 | 25976 ft | 475 kts | 159° |
| 2026-05-07 07:46 | 50.22907 | -0.08868 | 26370 ft | 477 kts | 159° |
| 2026-05-07 07:46 | 50.19818 | -0.06895 | 26751 ft | 480 kts | 159° |
| 2026-05-07 07:46 | 50.16731 | -0.04831 | 27139 ft | 483 kts | 158° |
| 2026-05-07 07:47 | 50.13656 | -0.02686 | 27506 ft | 485 kts | 157° |
| 2026-05-07 07:47 | 50.10536 | -0.00617 | 27855 ft | 487 kts | 161° |
| 2026-05-07 07:47 | 50.07303 | 0.00981 | 28192 ft | 488 kts | 165° |
| 2026-05-07 07:47 | 50.04018 | 0.02408 | 28540 ft | 490 kts | 167° |
| 2026-05-07 07:48 | 50.00738 | 0.03738 | 28862 ft | 493 kts | 167° |
| 2026-05-07 07:48 | 49.97414 | 0.05038 | 29296 ft | 492 kts | 168° |
| 2026-05-07 07:48 | 49.94089 | 0.06321 | 29798 ft | 490 kts | 168° |
| 2026-05-07 07:48 | 49.91851 | 0.07184 | 30100 ft | 490 kts | 168° |
| 2026-05-07 07:49 | 49.87468 | 0.08878 | 30591 ft | 489 kts | 168° |
| 2026-05-07 07:49 | 49.84157 | 0.10165 | 30956 ft | 488 kts | 168° |
| 2026-05-07 07:49 | 49.80857 | 0.11451 | 31296 ft | 487 kts | 167° |
| 2026-05-07 07:49 | 49.77563 | 0.12736 | 31634 ft | 487 kts | 167° |
| 2026-05-07 07:50 | 49.74322 | 0.13999 | 31948 ft | 486 kts | 167° |
| 2026-05-07 07:50 | 49.71033 | 0.15280 | 32258 ft | 486 kts | 168° |
| 2026-05-07 07:50 | 49.67747 | 0.16559 | 32586 ft | 485 kts | 168° |
| 2026-05-07 07:50 | 49.64474 | 0.17849 | 32894 ft | 485 kts | 167° |
| 2026-05-07 07:51 | 49.62300 | 0.18721 | 33040 ft | 486 kts | 167° |
| 2026-05-07 07:51 | 49.54583 | 0.21850 | 33072 ft | 498 kts | 167° |
| 2026-05-07 07:52 | 49.47822 | 0.24578 | 33068 ft | 503 kts | 167° |
| 2026-05-07 07:52 | 49.41078 | 0.27282 | 33075 ft | 503 kts | 167° |
| 2026-05-07 07:53 | 49.34305 | 0.29986 | 33078 ft | 502 kts | 167° |
| 2026-05-07 07:53 | 49.27519 | 0.32717 | 33071 ft | 503 kts | 166° |
| 2026-05-07 07:54 | 49.20804 | 0.35555 | 33067 ft | 503 kts | 166° |
| 2026-05-07 07:54 | 49.14054 | 0.38425 | 33061 ft | 503 kts | 166° |
| 2026-05-07 07:55 | 49.07292 | 0.41275 | 33054 ft | 503 kts | 166° |
| 2026-05-07 07:55 | 49.00533 | 0.44102 | 33053 ft | 503 kts | 166° |
| 2026-05-07 07:56 | 48.93814 | 0.46903 | 33052 ft | 503 kts | 166° |
| 2026-05-07 07:56 | 48.87050 | 0.49716 | 33056 ft | 503 kts | 166° |
| 2026-05-07 07:57 | 48.80280 | 0.52522 | 33055 ft | 502 kts | 166° |
| 2026-05-07 07:57 | 48.73564 | 0.55251 | 33051 ft | 502 kts | 167° |
| 2026-05-07 07:58 | 48.66786 | 0.57879 | 33052 ft | 502 kts | 167° |
| 2026-05-07 07:58 | 48.61125 | 0.60066 | 33054 ft | 502 kts | 167° |
| 2026-05-07 07:59 | 48.54353 | 0.62694 | 33054 ft | 502 kts | 167° |
| 2026-05-07 07:59 | 48.47625 | 0.65344 | 33057 ft | 502 kts | 166° |
| 2026-05-07 08:00 | 48.40877 | 0.68105 | 33054 ft | 502 kts | 166° |
| 2026-05-07 08:00 | 48.34160 | 0.70856 | 33051 ft | 502 kts | 166° |
| 2026-05-07 08:01 | 48.27408 | 0.73595 | 33054 ft | 502 kts | 166° |
| 2026-05-07 08:01 | 48.20644 | 0.76306 | 33056 ft | 502 kts | 166° |
| 2026-05-07 08:02 | 48.13923 | 0.78941 | 33047 ft | 502 kts | 167° |
| 2026-05-07 08:02 | 48.07147 | 0.81587 | 33047 ft | 502 kts | 167° |
| 2026-05-07 08:03 | 48.00372 | 0.84233 | 33066 ft | 502 kts | 167° |
| 2026-05-07 08:03 | 47.93647 | 0.86857 | 33050 ft | 502 kts | 166° |
| 2026-05-07 08:04 | 47.86870 | 0.89496 | 33045 ft | 502 kts | 167° |
| 2026-05-07 08:04 | 47.80099 | 0.92127 | 33042 ft | 502 kts | 167° |
| 2026-05-07 08:05 | 47.73364 | 0.94734 | 33057 ft | 502 kts | 167° |
| 2026-05-07 08:05 | 47.66589 | 0.97348 | 33040 ft | 502 kts | 167° |
| 2026-05-07 08:06 | 47.59795 | 0.99964 | 33049 ft | 502 kts | 167° |
| 2026-05-07 08:06 | 47.53023 | 1.02562 | 33051 ft | 502 kts | 167° |
| 2026-05-07 08:07 | 47.46253 | 1.05146 | 33049 ft | 502 kts | 168° |
| 2026-05-07 08:07 | 47.39378 | 1.06338 | 33051 ft | 499 kts | 180° |
| 2026-05-07 08:08 | 47.32426 | 1.06310 | 33051 ft | 499 kts | 182° |
| 2026-05-07 08:08 | 47.25465 | 1.06089 | 33041 ft | 499 kts | 183° |
| 2026-05-07 08:09 | 47.18552 | 1.05881 | 33051 ft | 499 kts | 182° |
| 2026-05-07 08:09 | 47.11599 | 1.05706 | 33046 ft | 499 kts | 182° |
| 2026-05-07 08:10 | 47.04646 | 1.05544 | 33045 ft | 499 kts | 182° |
| 2026-05-07 08:10 | 46.97740 | 1.05348 | 33037 ft | 499 kts | 183° |
| 2026-05-07 08:11 | 46.90786 | 1.05033 | 33038 ft | 499 kts | 184° |
| 2026-05-07 08:11 | 46.83887 | 1.04712 | 33034 ft | 499 kts | 184° |
| 2026-05-07 08:12 | 46.76940 | 1.04405 | 33032 ft | 498 kts | 183° |
| 2026-05-07 08:12 | 46.69998 | 1.04110 | 33026 ft | 498 kts | 183° |
| 2026-05-07 08:13 | 46.63084 | 1.03819 | 33022 ft | 498 kts | 184° |
| 2026-05-07 08:13 | 46.56158 | 1.03526 | 33020 ft | 497 kts | 184° |
| 2026-05-07 08:14 | 46.49244 | 1.04202 | 33020 ft | 500 kts | 171° |
| 2026-05-07 08:14 | 46.42417 | 1.06299 | 33016 ft | 501 kts | 169° |
| 2026-05-07 08:15 | 46.35610 | 1.08621 | 33012 ft | 501 kts | 169° |
| 2026-05-07 08:15 | 46.28806 | 1.10939 | 33009 ft | 501 kts | 169° |
| 2026-05-07 08:16 | 46.22055 | 1.13198 | 33009 ft | 501 kts | 169° |
| 2026-05-07 08:16 | 46.15247 | 1.15454 | 33011 ft | 500 kts | 169° |
| 2026-05-07 08:17 | 46.08497 | 1.17685 | 33012 ft | 500 kts | 169° |
| 2026-05-07 08:17 | 46.01688 | 1.19928 | 33014 ft | 500 kts | 169° |
| 2026-05-07 08:18 | 45.94938 | 1.22147 | 33017 ft | 499 kts | 169° |
| 2026-05-07 08:18 | 45.88163 | 1.24370 | 33017 ft | 499 kts | 170° |
| 2026-05-07 08:19 | 45.81388 | 1.26587 | 33019 ft | 498 kts | 170° |
| 2026-05-07 08:19 | 45.74618 | 1.28796 | 33014 ft | 498 kts | 170° |
| 2026-05-07 08:20 | 45.67885 | 1.30989 | 33013 ft | 497 kts | 170° |
| 2026-05-07 08:20 | 45.61123 | 1.33186 | 33015 ft | 497 kts | 170° |
| 2026-05-07 08:21 | 45.54415 | 1.35359 | 32993 ft | 497 kts | 170° |
| 2026-05-07 08:21 | 45.47656 | 1.37544 | 32999 ft | 497 kts | 170° |
| 2026-05-07 08:22 | 45.40908 | 1.39725 | 33001 ft | 496 kts | 170° |
| 2026-05-07 08:22 | 45.34200 | 1.41881 | 33003 ft | 496 kts | 170° |
| 2026-05-07 08:23 | 45.27453 | 1.44043 | 33011 ft | 496 kts | 170° |
| 2026-05-07 08:23 | 45.20688 | 1.46208 | 33016 ft | 496 kts | 170° |
| 2026-05-07 08:24 | 45.13936 | 1.48365 | 33018 ft | 497 kts | 170° |
| 2026-05-07 08:24 | 45.07184 | 1.50516 | 33021 ft | 497 kts | 171° |
| 2026-05-07 08:25 | 45.00467 | 1.52651 | 33020 ft | 497 kts | 171° |
| 2026-05-07 08:25 | 44.93697 | 1.54799 | 33017 ft | 497 kts | 171° |
| 2026-05-07 08:26 | 44.83595 | 1.57991 | 33015 ft | 497 kts | 171° |
| 2026-05-07 08:26 | 44.76823 | 1.60123 | 33010 ft | 497 kts | 171° |
| 2026-05-07 08:27 | 44.70099 | 1.62236 | 33011 ft | 498 kts | 171° |
| 2026-05-07 08:27 | 44.63315 | 1.64364 | 33004 ft | 498 kts | 171° |
| 2026-05-07 08:28 | 44.56544 | 1.66483 | 33012 ft | 498 kts | 171° |
| 2026-05-07 08:28 | 44.49805 | 1.68586 | 33013 ft | 498 kts | 171° |
| 2026-05-07 08:29 | 44.43018 | 1.70700 | 33013 ft | 498 kts | 171° |
| 2026-05-07 08:29 | 44.36255 | 1.72800 | 33017 ft | 498 kts | 172° |
| 2026-05-07 08:30 | 44.29468 | 1.74903 | 33016 ft | 498 kts | 172° |
| 2026-05-07 08:30 | 44.22647 | 1.76669 | 33019 ft | 496 kts | 175° |
| 2026-05-07 08:31 | 44.15852 | 1.78037 | 33019 ft | 495 kts | 176° |
| 2026-05-07 08:31 | 44.09027 | 1.79438 | 33023 ft | 495 kts | 175° |
| 2026-05-07 08:32 | 44.02211 | 1.80909 | 33023 ft | 495 kts | 175° |
| 2026-05-07 08:32 | 43.95437 | 1.82398 | 33025 ft | 495 kts | 175° |
| 2026-05-07 08:33 | 43.88616 | 1.83430 | 33025 ft | 491 kts | 180° |
| 2026-05-07 08:33 | 43.81790 | 1.83910 | 33027 ft | 490 kts | 181° |
| 2026-05-07 08:34 | 43.75011 | 1.84422 | 33026 ft | 490 kts | 180° |
| 2026-05-07 08:34 | 43.68201 | 1.85042 | 33036 ft | 489 kts | 180° |
| 2026-05-07 08:35 | 43.61405 | 1.85702 | 33035 ft | 489 kts | 180° |
| 2026-05-07 08:35 | 43.54648 | 1.86361 | 33030 ft | 489 kts | 180° |
| 2026-05-07 08:36 | 43.47849 | 1.87016 | 33023 ft | 488 kts | 180° |
| 2026-05-07 08:36 | 43.41062 | 1.87667 | 33020 ft | 488 kts | 180° |
| 2026-05-07 08:37 | 43.35421 | 1.88206 | 33030 ft | 488 kts | 180° |
| 2026-05-07 08:37 | 43.27539 | 1.88960 | 33026 ft | 487 kts | 180° |
| 2026-05-07 08:38 | 43.20763 | 1.89610 | 33017 ft | 487 kts | 180° |
| 2026-05-07 08:38 | 43.15132 | 1.90149 | 33021 ft | 487 kts | 180° |
| 2026-05-07 08:39 | 43.08360 | 1.90793 | 33017 ft | 487 kts | 180° |
| 2026-05-07 08:39 | 43.01576 | 1.91435 | 33015 ft | 487 kts | 180° |
| 2026-05-07 08:40 | 42.94851 | 1.92071 | 33006 ft | 487 kts | 180° |
| 2026-05-07 08:40 | 42.88087 | 1.92711 | 33002 ft | 487 kts | 180° |
| 2026-05-07 08:41 | 42.81318 | 1.93352 | 33000 ft | 486 kts | 180° |
| 2026-05-07 08:41 | 42.74609 | 1.93984 | 33000 ft | 486 kts | 180° |
| 2026-05-07 08:42 | 42.67854 | 1.94620 | 33000 ft | 485 kts | 180° |
| 2026-05-07 08:42 | 42.61101 | 1.95615 | 32993 ft | 488 kts | 175° |
| 2026-05-07 08:43 | 42.54436 | 1.97111 | 32990 ft | 488 kts | 174° |
| 2026-05-07 08:43 | 42.47734 | 1.98595 | 32990 ft | 487 kts | 175° |
| 2026-05-07 08:44 | 42.41018 | 1.99984 | 32989 ft | 487 kts | 175° |
| 2026-05-07 08:44 | 42.34311 | 2.01296 | 32989 ft | 485 kts | 178° |
| 2026-05-07 08:45 | 42.27640 | 2.01974 | 32997 ft | 482 kts | 181° |
| 2026-05-07 08:45 | 42.20944 | 2.02434 | 33227 ft | 478 kts | 181° |
| 2026-05-07 08:46 | 42.17656 | 2.02696 | 34025 ft | 466 kts | 180° |
| 2026-05-07 08:46 | 42.14444 | 2.02975 | 34626 ft | 457 kts | 180° |
| 2026-05-07 08:46 | 42.11315 | 2.03258 | 34939 ft | 456 kts | 180° |
| 2026-05-07 08:46 | 42.08132 | 2.03550 | 35003 ft | 460 kts | 180° |
| 2026-05-07 08:47 | 42.01674 | 2.04152 | 35001 ft | 469 kts | 180° |
| 2026-05-07 08:47 | 41.95092 | 2.04771 | 35003 ft | 476 kts | 180° |
| 2026-05-07 08:48 | 41.88494 | 2.05395 | 35006 ft | 477 kts | 180° |
| 2026-05-07 08:48 | 41.81902 | 2.06018 | 35013 ft | 476 kts | 180° |
| 2026-05-07 08:49 | 41.75279 | 2.06638 | 35015 ft | 476 kts | 180° |
| 2026-05-07 08:49 | 41.68666 | 2.07254 | 35013 ft | 475 kts | 180° |
| 2026-05-07 08:50 | 41.62101 | 2.07867 | 35022 ft | 475 kts | 180° |
| 2026-05-07 08:50 | 41.55488 | 2.08483 | 35023 ft | 475 kts | 180° |
| 2026-05-07 08:51 | 41.48930 | 2.09092 | 35021 ft | 475 kts | 180° |
| 2026-05-07 08:51 | 41.42335 | 2.09704 | 35026 ft | 474 kts | 180° |
| 2026-05-07 08:52 | 41.35747 | 2.10316 | 35019 ft | 474 kts | 180° |
| 2026-05-07 08:52 | 41.29168 | 2.11416 | 35016 ft | 479 kts | 172° |
| 2026-05-07 08:53 | 41.22668 | 2.13576 | 35015 ft | 481 kts | 170° |
| 2026-05-07 08:53 | 41.16197 | 2.15910 | 35019 ft | 481 kts | 170° |
| 2026-05-07 08:54 | 41.09766 | 2.18236 | 35015 ft | 481 kts | 170° |
| 2026-05-07 08:54 | 41.03305 | 2.20542 | 35016 ft | 481 kts | 170° |
| 2026-05-07 08:55 | 40.96830 | 2.22836 | 35012 ft | 480 kts | 170° |
| 2026-05-07 08:55 | 40.90363 | 2.25122 | 35010 ft | 480 kts | 170° |
| 2026-05-07 08:56 | 40.83935 | 2.27389 | 35003 ft | 480 kts | 171° |
| 2026-05-07 08:56 | 40.77474 | 2.29669 | 35004 ft | 480 kts | 171° |
| 2026-05-07 08:57 | 40.71008 | 2.31942 | 35002 ft | 480 kts | 171° |
| 2026-05-07 08:57 | 40.64588 | 2.34189 | 35003 ft | 479 kts | 171° |
| 2026-05-07 08:58 | 40.58124 | 2.36454 | 34999 ft | 479 kts | 171° |
| 2026-05-07 08:58 | 40.51712 | 2.38692 | 34999 ft | 479 kts | 171° |
| 2026-05-07 08:59 | 40.45266 | 2.40943 | 34995 ft | 479 kts | 171° |
| 2026-05-07 08:59 | 40.38814 | 2.43185 | 34995 ft | 478 kts | 171° |
| 2026-05-07 09:00 | 40.32400 | 2.45409 | 34990 ft | 478 kts | 171° |
| 2026-05-07 09:00 | 40.25964 | 2.47638 | 34989 ft | 478 kts | 171° |
| 2026-05-07 09:01 | 40.19524 | 2.49865 | 34993 ft | 478 kts | 171° |
| 2026-05-07 09:01 | 40.13086 | 2.52088 | 34989 ft | 478 kts | 171° |
| 2026-05-07 09:02 | 40.06644 | 2.54307 | 34982 ft | 478 kts | 172° |
| 2026-05-07 09:02 | 40.00255 | 2.56504 | 34981 ft | 477 kts | 172° |
| 2026-05-07 09:03 | 39.93819 | 2.58713 | 34980 ft | 477 kts | 172° |
| 2026-05-07 09:03 | 39.87390 | 2.60914 | 34975 ft | 477 kts | 172° |
| 2026-05-07 09:04 | 39.80956 | 2.63114 | 34967 ft | 477 kts | 172° |
| 2026-05-07 09:04 | 39.74572 | 2.65292 | 34968 ft | 477 kts | 172° |
| 2026-05-07 09:05 | 39.68147 | 2.67483 | 34956 ft | 477 kts | 172° |
| 2026-05-07 09:05 | 39.61704 | 2.69673 | 34965 ft | 477 kts | 172° |
| 2026-05-07 09:06 | 39.55285 | 2.71848 | 34964 ft | 477 kts | 172° |
| 2026-05-07 09:06 | 39.48861 | 2.74022 | 34966 ft | 477 kts | 172° |
| 2026-05-07 09:07 | 39.42472 | 2.76181 | 34964 ft | 477 kts | 172° |
| 2026-05-07 09:07 | 39.36046 | 2.78395 | 34965 ft | 477 kts | 172° |
| 2026-05-07 09:08 | 39.29621 | 2.80630 | 34966 ft | 476 kts | 172° |
| 2026-05-07 09:08 | 39.23253 | 2.82837 | 34968 ft | 476 kts | 172° |
| 2026-05-07 09:09 | 39.16850 | 2.85045 | 34965 ft | 475 kts | 172° |
| 2026-05-07 09:09 | 39.10498 | 2.87229 | 34963 ft | 474 kts | 172° |
| 2026-05-07 09:10 | 39.04113 | 2.89420 | 34964 ft | 473 kts | 173° |
| 2026-05-07 09:10 | 38.97747 | 2.91610 | 34965 ft | 473 kts | 173° |
| 2026-05-07 09:11 | 38.91396 | 2.93796 | 34962 ft | 472 kts | 173° |
| 2026-05-07 09:11 | 38.85047 | 2.95965 | 34962 ft | 471 kts | 173° |
| 2026-05-07 09:12 | 38.78751 | 2.98103 | 34960 ft | 469 kts | 173° |
| 2026-05-07 09:12 | 38.72434 | 3.00247 | 34962 ft | 467 kts | 174° |
| 2026-05-07 09:13 | 38.66152 | 3.02377 | 34953 ft | 466 kts | 174° |
| 2026-05-07 09:13 | 38.59886 | 3.04499 | 34954 ft | 464 kts | 174° |
| 2026-05-07 09:14 | 38.53688 | 3.06593 | 34956 ft | 463 kts | 174° |
| 2026-05-07 09:14 | 38.47455 | 3.08695 | 34951 ft | 462 kts | 174° |
| 2026-05-07 09:15 | 38.41242 | 3.10786 | 34949 ft | 461 kts | 175° |
| 2026-05-07 09:15 | 38.35069 | 3.12861 | 34951 ft | 460 kts | 175° |
| 2026-05-07 09:16 | 38.28883 | 3.14938 | 34947 ft | 459 kts | 175° |
| 2026-05-07 09:16 | 38.22714 | 3.17013 | 34946 ft | 457 kts | 175° |
| 2026-05-07 09:17 | 38.16564 | 3.19071 | 34947 ft | 456 kts | 175° |
| 2026-05-07 09:17 | 38.10465 | 3.21080 | 34940 ft | 453 kts | 177° |
| 2026-05-07 09:18 | 38.05363 | 3.22525 | 34942 ft | 449 kts | 178° |
| 2026-05-07 09:18 | 37.99243 | 3.24156 | 34942 ft | 448 kts | 179° |
| 2026-05-07 09:19 | 37.93169 | 3.25809 | 34940 ft | 448 kts | 178° |
| 2026-05-07 09:19 | 37.87076 | 3.27501 | 34939 ft | 447 kts | 178° |
| 2026-05-07 09:20 | 37.80995 | 3.29199 | 34934 ft | 446 kts | 178° |
| 2026-05-07 09:20 | 37.74972 | 3.30878 | 34936 ft | 445 kts | 179° |
| 2026-05-07 09:21 | 37.68915 | 3.32560 | 34933 ft | 445 kts | 179° |
| 2026-05-07 09:21 | 37.62852 | 3.34242 | 34932 ft | 444 kts | 179° |
| 2026-05-07 09:22 | 37.56819 | 3.35913 | 34928 ft | 444 kts | 179° |
| 2026-05-07 09:22 | 37.50818 | 3.37573 | 34922 ft | 443 kts | 179° |
| 2026-05-07 09:23 | 37.44786 | 3.39238 | 34926 ft | 442 kts | 179° |
| 2026-05-07 09:23 | 37.38764 | 3.40898 | 34925 ft | 442 kts | 179° |
| 2026-05-07 09:24 | 37.32791 | 3.42540 | 34923 ft | 441 kts | 179° |
| 2026-05-07 09:24 | 37.26785 | 3.44189 | 34922 ft | 440 kts | 179° |
| 2026-05-07 09:25 | 37.20801 | 3.45829 | 34920 ft | 440 kts | 179° |
| 2026-05-07 09:25 | 37.14812 | 3.47468 | 34922 ft | 439 kts | 179° |
| 2026-05-07 09:26 | 37.08829 | 3.49104 | 34920 ft | 439 kts | 179° |
| 2026-05-07 09:26 | 37.02892 | 3.50724 | 34920 ft | 438 kts | 179° |
| 2026-05-07 09:27 | 36.96921 | 3.52350 | 34922 ft | 438 kts | 179° |
| 2026-05-07 09:28 | 36.88014 | 3.54771 | 34923 ft | 437 kts | 180° |
| 2026-05-07 09:28 | 36.82064 | 3.56386 | 34917 ft | 437 kts | 180° |
| 2026-05-07 09:29 | 36.76114 | 3.57904 | 34914 ft | 431 kts | 182° |
| 2026-05-07 09:29 | 36.70199 | 3.58888 | 34915 ft | 427 kts | 185° |
| 2026-05-07 09:30 | 36.64326 | 3.59775 | 34918 ft | 427 kts | 184° |
| 2026-05-07 09:30 | 36.58411 | 3.60747 | 34925 ft | 428 kts | 184° |
| 2026-05-07 09:31 | 36.52541 | 3.61758 | 34936 ft | 428 kts | 183° |
| 2026-05-07 09:31 | 36.46632 | 3.62787 | 34932 ft | 428 kts | 183° |
| 2026-05-07 09:32 | 36.40725 | 3.63815 | 34924 ft | 428 kts | 183° |
| 2026-05-07 09:32 | 36.34850 | 3.64828 | 34926 ft | 427 kts | 183° |
| 2026-05-07 09:33 | 36.28946 | 3.65846 | 34930 ft | 427 kts | 183° |
| 2026-05-07 09:33 | 36.23058 | 3.66858 | 34926 ft | 427 kts | 183° |
| 2026-05-07 09:34 | 36.17159 | 3.67870 | 34936 ft | 427 kts | 183° |
| 2026-05-07 09:34 | 36.11268 | 3.68882 | 34934 ft | 427 kts | 183° |
| 2026-05-07 09:35 | 36.05381 | 3.69889 | 34935 ft | 426 kts | 183° |
| 2026-05-07 09:35 | 35.99523 | 3.70892 | 34932 ft | 427 kts | 183° |
| 2026-05-07 09:36 | 35.93610 | 3.71901 | 34934 ft | 428 kts | 183° |
| 2026-05-07 09:36 | 35.87702 | 3.72908 | 34932 ft | 428 kts | 183° |
| 2026-05-07 09:37 | 35.81792 | 3.73915 | 34940 ft | 429 kts | 183° |
| 2026-05-07 09:37 | 35.75871 | 3.74921 | 34928 ft | 429 kts | 182° |
| 2026-05-07 09:38 | 35.69943 | 3.75927 | 34932 ft | 430 kts | 182° |
| 2026-05-07 09:38 | 35.64038 | 3.76927 | 34931 ft | 430 kts | 182° |
| 2026-05-07 09:39 | 35.58091 | 3.77935 | 34931 ft | 431 kts | 182° |
| 2026-05-07 09:39 | 35.52167 | 3.78937 | 34926 ft | 432 kts | 182° |
| 2026-05-07 09:40 | 35.46202 | 3.79944 | 34928 ft | 432 kts | 182° |
| 2026-05-07 09:40 | 35.40227 | 3.80952 | 34926 ft | 433 kts | 182° |
| 2026-05-07 09:41 | 35.34248 | 3.81958 | 34930 ft | 434 kts | 182° |
| 2026-05-07 09:41 | 35.28245 | 3.82967 | 34927 ft | 435 kts | 182° |
| 2026-05-07 09:42 | 35.22232 | 3.83977 | 34927 ft | 436 kts | 182° |
| 2026-05-07 09:42 | 35.16242 | 3.84981 | 34923 ft | 437 kts | 182° |
| 2026-05-07 09:43 | 35.10202 | 3.85991 | 34926 ft | 438 kts | 182° |
| 2026-05-07 09:43 | 35.04156 | 3.87002 | 34925 ft | 438 kts | 182° |
| 2026-05-07 09:44 | 34.98101 | 3.88013 | 34927 ft | 439 kts | 182° |
| 2026-05-07 09:44 | 34.92034 | 3.89025 | 34926 ft | 439 kts | 182° |
| 2026-05-07 09:45 | 34.85993 | 3.90030 | 34922 ft | 440 kts | 182° |
| 2026-05-07 09:45 | 34.79919 | 3.91040 | 34920 ft | 440 kts | 182° |
| 2026-05-07 09:46 | 34.73866 | 3.92044 | 34921 ft | 441 kts | 182° |
| 2026-05-07 09:46 | 34.67778 | 3.93052 | 34923 ft | 441 kts | 182° |
| 2026-05-07 09:47 | 34.61686 | 3.94060 | 34914 ft | 441 kts | 182° |
| 2026-05-07 09:47 | 34.55640 | 3.95057 | 34914 ft | 441 kts | 182° |
| 2026-05-07 09:48 | 34.49544 | 3.96061 | 34908 ft | 441 kts | 182° |
| 2026-05-07 09:48 | 34.43450 | 3.97063 | 34906 ft | 442 kts | 182° |
| 2026-05-07 09:49 | 34.37342 | 3.98065 | 34908 ft | 442 kts | 182° |
| 2026-05-07 09:49 | 34.31264 | 3.99064 | 34900 ft | 443 kts | 181° |
| 2026-05-07 09:50 | 34.25144 | 4.00069 | 34900 ft | 444 kts | 181° |
| 2026-05-07 09:50 | 34.19047 | 4.01067 | 34904 ft | 444 kts | 181° |
| 2026-05-07 09:51 | 34.12894 | 4.02067 | 34899 ft | 444 kts | 182° |
| 2026-05-07 09:51 | 34.06829 | 4.02110 | 34902 ft | 431 kts | 192° |
| 2026-05-07 09:52 | 34.00857 | 4.01325 | 34898 ft | 430 kts | 194° |
| 2026-05-07 09:52 | 33.94945 | 4.00422 | 34898 ft | 431 kts | 194° |
| 2026-05-07 09:53 | 33.88972 | 3.99513 | 34898 ft | 432 kts | 194° |
| 2026-05-07 09:53 | 33.82993 | 3.98624 | 34897 ft | 432 kts | 194° |
| 2026-05-07 09:54 | 33.77050 | 3.97751 | 34898 ft | 433 kts | 194° |
| 2026-05-07 09:54 | 33.71054 | 3.96873 | 34900 ft | 433 kts | 194° |
| 2026-05-07 09:55 | 33.65059 | 3.95995 | 34899 ft | 434 kts | 194° |
| 2026-05-07 09:55 | 33.59086 | 3.95122 | 34901 ft | 434 kts | 194° |
| 2026-05-07 09:56 | 33.54086 | 3.94392 | 34897 ft | 434 kts | 194° |
| 2026-05-07 09:56 | 33.48070 | 3.93514 | 34896 ft | 435 kts | 194° |
| 2026-05-07 09:57 | 33.42055 | 3.92637 | 34904 ft | 435 kts | 194° |
| 2026-05-07 09:57 | 33.36076 | 3.91767 | 34902 ft | 435 kts | 194° |
| 2026-05-07 09:58 | 33.30051 | 3.90891 | 34899 ft | 436 kts | 194° |
| 2026-05-07 09:58 | 33.24027 | 3.90018 | 34893 ft | 436 kts | 194° |
| 2026-05-07 09:59 | 33.18000 | 3.89146 | 34895 ft | 436 kts | 194° |
| 2026-05-07 09:59 | 33.11983 | 3.88275 | 34895 ft | 435 kts | 194° |
| 2026-05-07 10:00 | 33.05953 | 3.87403 | 34894 ft | 435 kts | 194° |
| 2026-05-07 10:00 | 32.99966 | 3.86539 | 34893 ft | 435 kts | 195° |
| 2026-05-07 10:01 | 32.93935 | 3.85662 | 34891 ft | 436 kts | 195° |
| 2026-05-07 10:01 | 32.87927 | 3.84793 | 35264 ft | 429 kts | 195° |
| 2026-05-07 10:01 | 32.84998 | 3.84378 | 35904 ft | 418 kts | 195° |
| 2026-05-07 10:02 | 32.82124 | 3.83971 | 36342 ft | 413 kts | 195° |
| 2026-05-07 10:02 | 32.79273 | 3.83561 | 36595 ft | 411 kts | 195° |
| 2026-05-07 10:02 | 32.76438 | 3.83148 | 36802 ft | 410 kts | 196° |
| 2026-05-07 10:03 | 32.70778 | 3.82314 | 36885 ft | 415 kts | 196° |
| 2026-05-07 10:03 | 32.64979 | 3.81464 | 36889 ft | 422 kts | 195° |
| 2026-05-07 10:04 | 32.59100 | 3.80614 | 36897 ft | 428 kts | 195° |
| 2026-05-07 10:04 | 32.53196 | 3.79770 | 36899 ft | 430 kts | 195° |
| 2026-05-07 10:05 | 32.47252 | 3.78922 | 36909 ft | 430 kts | 195° |
| 2026-05-07 10:05 | 32.41273 | 3.78137 | 36911 ft | 435 kts | 192° |
| 2026-05-07 10:06 | 32.35105 | 3.78537 | 36903 ft | 449 kts | 182° |
| 2026-05-07 10:06 | 32.28877 | 3.79631 | 36909 ft | 454 kts | 181° |
| 2026-05-07 10:07 | 32.22626 | 3.80834 | 36894 ft | 455 kts | 181° |
| 2026-05-07 10:07 | 32.16390 | 3.82016 | 36887 ft | 456 kts | 181° |
| 2026-05-07 10:08 | 32.10108 | 3.83180 | 36874 ft | 457 kts | 181° |
| 2026-05-07 10:08 | 32.03813 | 3.84336 | 36864 ft | 458 kts | 181° |
| 2026-05-07 10:09 | 31.97497 | 3.85494 | 36858 ft | 459 kts | 181° |
| 2026-05-07 10:09 | 31.91210 | 3.86647 | 36861 ft | 460 kts | 181° |
| 2026-05-07 10:10 | 31.84877 | 3.87808 | 36856 ft | 460 kts | 181° |
| 2026-05-07 10:10 | 31.78542 | 3.88966 | 36855 ft | 461 kts | 181° |
| 2026-05-07 10:11 | 31.72189 | 3.90125 | 36855 ft | 462 kts | 181° |
| 2026-05-07 10:11 | 31.65872 | 3.91277 | 36854 ft | 462 kts | 181° |
| 2026-05-07 10:12 | 31.59494 | 3.92438 | 36857 ft | 463 kts | 181° |
| 2026-05-07 10:12 | 31.53117 | 3.93598 | 36855 ft | 463 kts | 181° |
| 2026-05-07 10:13 | 31.46728 | 3.94759 | 36856 ft | 464 kts | 181° |
| 2026-05-07 10:13 | 31.40345 | 3.95916 | 36852 ft | 465 kts | 181° |
| 2026-05-07 10:14 | 31.33985 | 3.97067 | 36851 ft | 465 kts | 181° |
| 2026-05-07 10:14 | 31.27565 | 3.98228 | 36853 ft | 466 kts | 181° |
| 2026-05-07 10:15 | 31.21134 | 3.99389 | 36848 ft | 467 kts | 181° |
| 2026-05-07 10:15 | 31.14711 | 4.00548 | 36844 ft | 467 kts | 181° |
| 2026-05-07 10:16 | 31.08275 | 4.01707 | 36842 ft | 468 kts | 181° |
| 2026-05-07 10:16 | 31.01863 | 4.02859 | 36842 ft | 469 kts | 181° |
| 2026-05-07 10:17 | 30.95384 | 4.04023 | 36851 ft | 470 kts | 180° |
| 2026-05-07 10:17 | 30.88902 | 4.05186 | 36842 ft | 471 kts | 180° |
| 2026-05-07 10:18 | 30.82406 | 4.06349 | 36848 ft | 472 kts | 180° |
| 2026-05-07 10:18 | 30.75936 | 4.07507 | 36847 ft | 473 kts | 180° |
| 2026-05-07 10:19 | 30.69418 | 4.08671 | 36846 ft | 474 kts | 180° |
| 2026-05-07 10:19 | 30.62889 | 4.09836 | 36849 ft | 475 kts | 180° |
| 2026-05-07 10:20 | 30.56348 | 4.11002 | 36853 ft | 475 kts | 180° |
| 2026-05-07 10:20 | 30.49803 | 4.12167 | 36858 ft | 476 kts | 180° |
| 2026-05-07 10:21 | 30.43225 | 4.13336 | 36858 ft | 477 kts | 180° |
| 2026-05-07 10:21 | 30.36700 | 4.14494 | 36862 ft | 477 kts | 180° |
| 2026-05-07 10:22 | 30.30113 | 4.15661 | 36864 ft | 478 kts | 180° |
| 2026-05-07 10:22 | 30.23526 | 4.16825 | 36868 ft | 479 kts | 180° |
| 2026-05-07 10:23 | 30.16971 | 4.17982 | 36869 ft | 479 kts | 180° |
| 2026-05-07 10:23 | 30.10353 | 4.19149 | 36870 ft | 480 kts | 180° |
| 2026-05-07 10:24 | 30.03724 | 4.20317 | 36875 ft | 481 kts | 180° |
| 2026-05-07 10:24 | 29.97138 | 4.21476 | 36884 ft | 482 kts | 180° |
| 2026-05-07 10:25 | 29.90482 | 4.22646 | 36883 ft | 482 kts | 180° |
| 2026-05-07 10:25 | 29.83829 | 4.23814 | 36881 ft | 484 kts | 180° |
| 2026-05-07 10:26 | 29.77148 | 4.24985 | 36888 ft | 484 kts | 180° |
| 2026-05-07 10:26 | 29.70513 | 4.26146 | 36889 ft | 485 kts | 180° |
| 2026-05-07 10:27 | 29.63811 | 4.27334 | 36903 ft | 486 kts | 180° |
| 2026-05-07 10:27 | 29.57102 | 4.28536 | 36903 ft | 487 kts | 180° |
| 2026-05-07 10:28 | 29.50426 | 4.29728 | 36902 ft | 488 kts | 180° |
| 2026-05-07 10:28 | 29.43698 | 4.30925 | 36910 ft | 488 kts | 180° |
| 2026-05-07 10:29 | 29.36967 | 4.32119 | 36904 ft | 488 kts | 180° |
| 2026-05-07 10:29 | 29.30283 | 4.33305 | 36910 ft | 488 kts | 180° |
| 2026-05-07 10:30 | 29.20195 | 4.35091 | 36914 ft | 488 kts | 180° |
| 2026-05-07 10:30 | 29.13493 | 4.36274 | 36915 ft | 489 kts | 180° |
| 2026-05-07 10:31 | 29.06747 | 4.37462 | 36918 ft | 489 kts | 180° |
| 2026-05-07 10:31 | 28.99992 | 4.38651 | 36925 ft | 490 kts | 180° |
| 2026-05-07 10:32 | 28.93283 | 4.39832 | 36929 ft | 490 kts | 180° |
| 2026-05-07 10:32 | 28.86533 | 4.41019 | 36930 ft | 490 kts | 180° |
| 2026-05-07 10:33 | 28.79773 | 4.42206 | 36931 ft | 491 kts | 180° |
| 2026-05-07 10:33 | 28.73059 | 4.43382 | 36933 ft | 491 kts | 180° |
| 2026-05-07 10:34 | 28.66287 | 4.44567 | 36936 ft | 491 kts | 180° |
| 2026-05-07 10:34 | 28.60658 | 4.45551 | 36939 ft | 491 kts | 180° |
| 2026-05-07 10:35 | 28.53875 | 4.46736 | 36942 ft | 492 kts | 180° |
| 2026-05-07 10:35 | 28.47138 | 4.47914 | 36942 ft | 492 kts | 180° |
| 2026-05-07 10:36 | 28.40361 | 4.49129 | 36939 ft | 493 kts | 180° |
| 2026-05-07 10:36 | 28.33578 | 4.50352 | 36944 ft | 493 kts | 180° |
| 2026-05-07 10:37 | 28.26783 | 4.51571 | 36941 ft | 493 kts | 180° |
| 2026-05-07 10:37 | 28.20026 | 4.52780 | 36938 ft | 494 kts | 180° |
| 2026-05-07 10:38 | 28.13232 | 4.53992 | 36940 ft | 494 kts | 180° |
| 2026-05-07 10:38 | 28.06427 | 4.55204 | 36940 ft | 494 kts | 181° |
| 2026-05-07 10:39 | 27.99625 | 4.56414 | 36939 ft | 494 kts | 181° |
| 2026-05-07 10:39 | 27.92903 | 4.57622 | 36935 ft | 482 kts | 181° |
| 2026-05-07 10:40 | 27.86330 | 4.58791 | 36945 ft | 479 kts | 181° |
| 2026-05-07 10:40 | 27.79731 | 4.59952 | 36938 ft | 479 kts | 181° |
| 2026-05-07 10:41 | 27.73150 | 4.61112 | 36942 ft | 479 kts | 181° |
| 2026-05-07 10:41 | 27.66557 | 4.62277 | 36937 ft | 478 kts | 181° |
| 2026-05-07 10:42 | 27.60013 | 4.63434 | 36943 ft | 478 kts | 181° |
| 2026-05-07 10:42 | 27.53423 | 4.64596 | 36942 ft | 478 kts | 181° |
| 2026-05-07 10:43 | 27.46865 | 4.65751 | 36941 ft | 479 kts | 181° |
| 2026-05-07 10:43 | 27.40268 | 4.66912 | 36944 ft | 479 kts | 181° |
| 2026-05-07 10:44 | 27.33666 | 4.68073 | 36944 ft | 479 kts | 181° |
| 2026-05-07 10:44 | 27.27095 | 4.69226 | 36941 ft | 480 kts | 181° |
| 2026-05-07 10:45 | 27.20474 | 4.70388 | 36936 ft | 480 kts | 181° |
| 2026-05-07 10:45 | 27.13855 | 4.71547 | 36934 ft | 481 kts | 181° |
| 2026-05-07 10:46 | 27.07272 | 4.72699 | 36949 ft | 481 kts | 181° |
| 2026-05-07 10:46 | 27.00650 | 4.73857 | 36938 ft | 481 kts | 181° |
| 2026-05-07 10:47 | 26.94022 | 4.75014 | 36952 ft | 482 kts | 181° |
| 2026-05-07 10:47 | 26.87388 | 4.76171 | 36946 ft | 482 kts | 181° |
| 2026-05-07 10:48 | 26.80748 | 4.77328 | 36935 ft | 483 kts | 181° |
| 2026-05-07 10:48 | 26.74138 | 4.78479 | 36941 ft | 483 kts | 182° |
| 2026-05-07 10:49 | 26.67481 | 4.79637 | 36940 ft | 483 kts | 182° |
| 2026-05-07 10:49 | 26.60824 | 4.80793 | 36942 ft | 484 kts | 182° |
| 2026-05-07 10:50 | 26.54194 | 4.81942 | 36939 ft | 484 kts | 182° |
| 2026-05-07 10:50 | 26.47535 | 4.83094 | 36946 ft | 484 kts | 182° |
| 2026-05-07 10:51 | 26.40877 | 4.84245 | 36944 ft | 483 kts | 182° |
| 2026-05-07 10:51 | 26.34215 | 4.85396 | 36949 ft | 483 kts | 182° |
| 2026-05-07 10:52 | 26.27593 | 4.86537 | 36946 ft | 484 kts | 182° |
| 2026-05-07 10:52 | 26.22047 | 4.87493 | 36946 ft | 484 kts | 182° |
| 2026-05-07 10:53 | 26.14253 | 4.88830 | 36947 ft | 484 kts | 181° |
| 2026-05-07 10:53 | 26.07619 | 4.89973 | 36951 ft | 484 kts | 182° |
| 2026-05-07 10:54 | 26.00959 | 4.91119 | 36950 ft | 484 kts | 182° |
| 2026-05-07 10:54 | 25.94291 | 4.92264 | 36953 ft | 484 kts | 182° |
| 2026-05-07 10:55 | 25.87618 | 4.93406 | 36953 ft | 484 kts | 182° |
| 2026-05-07 10:55 | 25.80954 | 4.94546 | 36954 ft | 485 kts | 181° |
| 2026-05-07 10:56 | 25.74316 | 4.95681 | 36951 ft | 485 kts | 181° |
| 2026-05-07 10:56 | 25.67626 | 4.96823 | 36943 ft | 485 kts | 181° |
| 2026-05-07 10:57 | 25.60933 | 4.97964 | 36944 ft | 486 kts | 181° |
| 2026-05-07 10:57 | 25.54280 | 4.99098 | 36944 ft | 486 kts | 181° |
| 2026-05-07 10:58 | 25.47594 | 5.00236 | 36938 ft | 486 kts | 181° |
| 2026-05-07 10:58 | 25.40891 | 5.01375 | 36938 ft | 486 kts | 181° |
| 2026-05-07 10:59 | 25.34194 | 5.02512 | 36934 ft | 486 kts | 181° |
| 2026-05-07 10:59 | 25.27494 | 5.03649 | 36934 ft | 486 kts | 181° |
| 2026-05-07 11:00 | 25.20830 | 5.04777 | 36935 ft | 486 kts | 181° |
| 2026-05-07 11:00 | 25.14121 | 5.05913 | 36934 ft | 487 kts | 181° |
| 2026-05-07 11:01 | 25.07447 | 5.07041 | 36941 ft | 487 kts | 181° |
| 2026-05-07 11:01 | 25.00725 | 5.08175 | 36939 ft | 487 kts | 181° |
| 2026-05-07 11:02 | 24.94016 | 5.09306 | 36927 ft | 487 kts | 181° |
| 2026-05-07 11:02 | 24.87346 | 5.10431 | 36921 ft | 488 kts | 181° |
| 2026-05-07 11:03 | 24.80617 | 5.11563 | 36916 ft | 488 kts | 181° |
| 2026-05-07 11:03 | 24.73883 | 5.12694 | 36913 ft | 489 kts | 181° |
| 2026-05-07 11:04 | 24.67134 | 5.13827 | 36911 ft | 490 kts | 181° |
| 2026-05-07 11:04 | 24.60380 | 5.14960 | 36905 ft | 491 kts | 181° |
| 2026-05-07 11:05 | 24.53650 | 5.16088 | 36902 ft | 491 kts | 181° |
| 2026-05-07 11:05 | 24.46884 | 5.17220 | 36895 ft | 492 kts | 181° |
| 2026-05-07 11:06 | 24.40136 | 5.18348 | 36890 ft | 492 kts | 181° |
| 2026-05-07 11:06 | 24.33353 | 5.19481 | 36884 ft | 492 kts | 180° |
| 2026-05-07 11:07 | 24.26560 | 5.20614 | 36884 ft | 493 kts | 180° |
| 2026-05-07 11:07 | 24.19755 | 5.21748 | 36879 ft | 493 kts | 180° |
| 2026-05-07 11:08 | 24.12998 | 5.22873 | 36874 ft | 494 kts | 180° |
| 2026-05-07 11:08 | 24.06187 | 5.24005 | 36869 ft | 494 kts | 180° |
| 2026-05-07 11:09 | 23.99378 | 5.25136 | 36855 ft | 495 kts | 180° |
| 2026-05-07 11:09 | 23.92561 | 5.26267 | 36852 ft | 495 kts | 180° |
| 2026-05-07 11:10 | 23.85745 | 5.27397 | 36843 ft | 495 kts | 180° |
| 2026-05-07 11:10 | 23.80066 | 5.28338 | 36844 ft | 496 kts | 180° |
| 2026-05-07 11:11 | 23.73264 | 5.29463 | 36842 ft | 496 kts | 180° |
| 2026-05-07 11:11 | 23.66426 | 5.30593 | 36842 ft | 496 kts | 180° |
| 2026-05-07 11:12 | 23.59578 | 5.31723 | 36848 ft | 497 kts | 180° |
| 2026-05-07 11:12 | 23.52733 | 5.32852 | 36854 ft | 497 kts | 180° |
| 2026-05-07 11:13 | 23.45914 | 5.33976 | 36865 ft | 497 kts | 180° |
| 2026-05-07 11:13 | 23.39054 | 5.35106 | 36869 ft | 498 kts | 180° |
| 2026-05-07 11:14 | 23.32224 | 5.36228 | 36875 ft | 498 kts | 180° |
| 2026-05-07 11:14 | 23.25364 | 5.37355 | 36879 ft | 498 kts | 180° |
| 2026-05-07 11:15 | 23.18489 | 5.38483 | 36885 ft | 498 kts | 179° |
| 2026-05-07 11:15 | 23.12788 | 5.39418 | 36921 ft | 498 kts | 179° |
| 2026-05-07 11:16 | 23.04754 | 5.40732 | 36990 ft | 499 kts | 179° |
| 2026-05-07 11:16 | 22.97927 | 5.41848 | 37054 ft | 499 kts | 179° |
| 2026-05-07 11:17 | 22.91033 | 5.42974 | 37117 ft | 499 kts | 179° |
| 2026-05-07 11:17 | 22.84188 | 5.44093 | 37127 ft | 500 kts | 179° |
| 2026-05-07 11:18 | 22.77376 | 5.46132 | 37127 ft | 513 kts | 167° |
| 2026-05-07 11:18 | 22.70685 | 5.48967 | 37108 ft | 516 kts | 165° |
| 2026-05-07 11:19 | 22.64061 | 5.51902 | 37037 ft | 517 kts | 165° |
| 2026-05-07 11:19 | 22.57384 | 5.54848 | 36969 ft | 517 kts | 165° |
| 2026-05-07 11:20 | 22.50694 | 5.57772 | 36887 ft | 517 kts | 165° |
| 2026-05-07 11:20 | 22.44044 | 5.60665 | 36847 ft | 517 kts | 165° |
| 2026-05-07 11:21 | 22.37350 | 5.63574 | 36844 ft | 517 kts | 165° |
| 2026-05-07 11:21 | 22.30659 | 5.66479 | 36837 ft | 518 kts | 165° |
| 2026-05-07 11:22 | 22.23955 | 5.69388 | 36830 ft | 518 kts | 165° |
| 2026-05-07 11:22 | 22.17246 | 5.72295 | 36827 ft | 519 kts | 165° |
| 2026-05-07 11:23 | 22.10582 | 5.75180 | 36824 ft | 519 kts | 165° |
| 2026-05-07 11:23 | 22.03870 | 5.78083 | 36822 ft | 519 kts | 165° |
| 2026-05-07 11:24 | 21.97151 | 5.80985 | 36818 ft | 520 kts | 165° |
| 2026-05-07 11:24 | 21.90427 | 5.83887 | 36819 ft | 520 kts | 165° |
| 2026-05-07 11:25 | 21.83740 | 5.86770 | 36814 ft | 520 kts | 165° |
| 2026-05-07 11:25 | 21.77001 | 5.89672 | 36812 ft | 520 kts | 165° |
| 2026-05-07 11:26 | 21.70267 | 5.92570 | 36817 ft | 521 kts | 165° |
| 2026-05-07 11:26 | 21.63533 | 5.95464 | 36807 ft | 521 kts | 165° |
| 2026-05-07 11:27 | 21.56831 | 5.98342 | 36810 ft | 521 kts | 165° |
| 2026-05-07 11:27 | 21.50087 | 6.01235 | 36803 ft | 521 kts | 165° |
| 2026-05-07 11:28 | 21.43332 | 6.04130 | 36802 ft | 522 kts | 165° |
| 2026-05-07 11:28 | 21.36572 | 6.07024 | 36808 ft | 522 kts | 165° |
| 2026-05-07 11:29 | 21.29852 | 6.09898 | 36802 ft | 522 kts | 165° |
| 2026-05-07 11:29 | 21.23086 | 6.12790 | 36799 ft | 522 kts | 165° |
| 2026-05-07 11:30 | 21.16325 | 6.15676 | 36793 ft | 522 kts | 165° |
| 2026-05-07 11:30 | 21.09560 | 6.18561 | 36796 ft | 523 kts | 165° |
| 2026-05-07 11:31 | 21.02783 | 6.21448 | 36805 ft | 523 kts | 165° |
| 2026-05-07 11:31 | 20.96014 | 6.24328 | 36798 ft | 523 kts | 165° |
| 2026-05-07 11:32 | 20.85897 | 6.28629 | 36805 ft | 523 kts | 165° |
| 2026-05-07 11:33 | 20.79150 | 6.31493 | 36803 ft | 524 kts | 165° |
| 2026-05-07 11:33 | 20.72370 | 6.34369 | 36794 ft | 524 kts | 165° |
| 2026-05-07 11:34 | 20.65590 | 6.37242 | 36799 ft | 524 kts | 165° |
| 2026-05-07 11:34 | 20.58808 | 6.40113 | 36798 ft | 524 kts | 164° |
| 2026-05-07 11:35 | 20.52032 | 6.42979 | 36800 ft | 524 kts | 164° |
| 2026-05-07 11:35 | 20.45230 | 6.45853 | 36796 ft | 524 kts | 164° |
| 2026-05-07 11:36 | 20.38476 | 6.48704 | 36803 ft | 524 kts | 164° |
| 2026-05-07 11:36 | 20.31676 | 6.51572 | 36803 ft | 524 kts | 164° |
| 2026-05-07 11:37 | 20.24881 | 6.54435 | 36805 ft | 525 kts | 164° |
| 2026-05-07 11:37 | 20.18065 | 6.57218 | 36802 ft | 521 kts | 169° |
| 2026-05-07 11:38 | 20.11099 | 6.58372 | 36799 ft | 502 kts | 187° |
| 2026-05-07 11:38 | 20.04371 | 6.57103 | 36808 ft | 485 kts | 204° |
| 2026-05-07 11:39 | 19.98022 | 6.54650 | 36803 ft | 484 kts | 207° |
| 2026-05-07 11:39 | 19.91736 | 6.52050 | 36800 ft | 484 kts | 207° |
| 2026-05-07 11:40 | 19.85478 | 6.49489 | 36798 ft | 485 kts | 206° |
| 2026-05-07 11:40 | 19.79155 | 6.46942 | 36799 ft | 485 kts | 206° |
| 2026-05-07 11:41 | 19.72816 | 6.44405 | 36798 ft | 485 kts | 206° |
| 2026-05-07 11:41 | 19.66481 | 6.41873 | 36800 ft | 485 kts | 206° |
| 2026-05-07 11:42 | 19.60193 | 6.39360 | 36799 ft | 486 kts | 206° |
| 2026-05-07 11:42 | 19.53850 | 6.36825 | 36796 ft | 486 kts | 206° |
| 2026-05-07 11:43 | 19.47511 | 6.34295 | 36797 ft | 486 kts | 206° |
| 2026-05-07 11:43 | 19.41210 | 6.31782 | 36797 ft | 486 kts | 206° |
| 2026-05-07 11:44 | 19.34866 | 6.29254 | 36800 ft | 487 kts | 206° |
| 2026-05-07 11:44 | 19.28519 | 6.26727 | 36796 ft | 487 kts | 206° |
| 2026-05-07 11:45 | 19.22195 | 6.24210 | 36794 ft | 487 kts | 206° |
| 2026-05-07 11:45 | 19.15839 | 6.21684 | 36795 ft | 487 kts | 206° |
| 2026-05-07 11:46 | 19.09479 | 6.19158 | 36791 ft | 488 kts | 206° |
| 2026-05-07 11:46 | 19.03117 | 6.16633 | 36791 ft | 488 kts | 206° |
| 2026-05-07 11:47 | 18.96751 | 6.14109 | 36793 ft | 488 kts | 206° |
| 2026-05-07 11:47 | 18.90418 | 6.11600 | 36791 ft | 488 kts | 206° |
| 2026-05-07 11:48 | 18.84053 | 6.09080 | 36793 ft | 489 kts | 206° |
| 2026-05-07 11:48 | 18.78745 | 6.06980 | 36795 ft | 489 kts | 206° |
| 2026-05-07 11:49 | 18.72355 | 6.04454 | 36794 ft | 489 kts | 206° |
| 2026-05-07 11:49 | 18.65977 | 6.01935 | 36791 ft | 489 kts | 206° |
| 2026-05-07 11:50 | 18.59630 | 5.99430 | 36792 ft | 489 kts | 206° |
| 2026-05-07 11:50 | 18.53233 | 5.96907 | 36787 ft | 490 kts | 205° |
| 2026-05-07 11:51 | 18.46837 | 5.94387 | 36803 ft | 490 kts | 205° |
| 2026-05-07 11:51 | 18.40484 | 5.91886 | 36797 ft | 491 kts | 205° |
| 2026-05-07 11:52 | 18.34060 | 5.89359 | 36780 ft | 491 kts | 205° |
| 2026-05-07 11:52 | 18.27645 | 5.86837 | 36798 ft | 492 kts | 205° |
| 2026-05-07 11:53 | 18.21219 | 5.84313 | 36793 ft | 492 kts | 205° |
| 2026-05-07 11:53 | 18.14795 | 5.81792 | 36791 ft | 492 kts | 205° |
| 2026-05-07 11:54 | 18.08410 | 5.79288 | 36788 ft | 493 kts | 205° |
| 2026-05-07 11:54 | 18.01976 | 5.76767 | 36790 ft | 493 kts | 205° |
| 2026-05-07 11:55 | 17.95538 | 5.74246 | 36788 ft | 493 kts | 205° |
| 2026-05-07 11:55 | 17.89094 | 5.71725 | 36787 ft | 494 kts | 205° |
| 2026-05-07 11:56 | 17.82726 | 5.69111 | 36786 ft | 490 kts | 211° |
| 2026-05-07 11:56 | 17.76794 | 5.65639 | 36787 ft | 487 kts | 215° |
| 2026-05-07 11:57 | 17.70974 | 5.61975 | 36791 ft | 487 kts | 216° |
| 2026-05-07 11:57 | 17.65207 | 5.58307 | 36788 ft | 487 kts | 216° |
| 2026-05-07 11:58 | 17.59392 | 5.54628 | 36788 ft | 487 kts | 216° |
| 2026-05-07 11:58 | 17.53573 | 5.50962 | 36787 ft | 487 kts | 216° |
| 2026-05-07 11:59 | 17.47776 | 5.47316 | 36786 ft | 488 kts | 216° |
| 2026-05-07 11:59 | 17.41955 | 5.43658 | 36788 ft | 488 kts | 216° |
| 2026-05-07 12:00 | 17.36110 | 5.39987 | 36788 ft | 488 kts | 216° |
| 2026-05-07 12:00 | 17.30275 | 5.36325 | 36785 ft | 489 kts | 216° |
| 2026-05-07 12:01 | 17.24430 | 5.32659 | 36787 ft | 489 kts | 216° |
| 2026-05-07 12:01 | 17.18622 | 5.29019 | 36784 ft | 489 kts | 216° |
| 2026-05-07 12:02 | 17.12772 | 5.25356 | 36783 ft | 489 kts | 216° |
| 2026-05-07 12:02 | 17.06929 | 5.21700 | 36786 ft | 489 kts | 216° |
| 2026-05-07 12:03 | 17.01114 | 5.18063 | 36789 ft | 489 kts | 216° |
| 2026-05-07 12:03 | 16.95266 | 5.14410 | 36787 ft | 489 kts | 216° |
| 2026-05-07 12:04 | 16.89424 | 5.10762 | 36789 ft | 489 kts | 216° |
| 2026-05-07 12:04 | 16.83581 | 5.07116 | 36784 ft | 489 kts | 216° |
| 2026-05-07 12:05 | 16.77743 | 5.03476 | 36786 ft | 489 kts | 216° |
| 2026-05-07 12:05 | 16.71934 | 4.99856 | 36790 ft | 489 kts | 215° |
| 2026-05-07 12:06 | 16.66082 | 4.96213 | 36792 ft | 489 kts | 215° |
| 2026-05-07 12:06 | 16.60234 | 4.92575 | 36796 ft | 490 kts | 215° |
| 2026-05-07 12:07 | 16.54368 | 4.88928 | 36798 ft | 490 kts | 215° |
| 2026-05-07 12:07 | 16.48505 | 4.85285 | 36798 ft | 490 kts | 215° |
| 2026-05-07 12:08 | 16.42677 | 4.81667 | 36799 ft | 490 kts | 215° |
| 2026-05-07 12:08 | 16.36799 | 4.78020 | 36799 ft | 491 kts | 215° |
| 2026-05-07 12:09 | 16.30928 | 4.74381 | 36801 ft | 491 kts | 215° |
| 2026-05-07 12:09 | 16.25033 | 4.70729 | 36802 ft | 492 kts | 215° |
| 2026-05-07 12:10 | 16.19176 | 4.67103 | 36802 ft | 492 kts | 215° |
| 2026-05-07 12:10 | 16.13274 | 4.63452 | 36805 ft | 493 kts | 215° |
| 2026-05-07 12:11 | 16.07398 | 4.59820 | 36805 ft | 493 kts | 215° |
| 2026-05-07 12:11 | 16.01227 | 4.56593 | 36800 ft | 497 kts | 208° |
| 2026-05-07 12:12 | 15.94935 | 4.53666 | 36799 ft | 498 kts | 208° |
| 2026-05-07 12:12 | 15.88578 | 4.50765 | 36804 ft | 498 kts | 208° |
| 2026-05-07 12:13 | 15.82214 | 4.47856 | 36804 ft | 498 kts | 208° |
| 2026-05-07 12:13 | 15.75875 | 4.44949 | 36806 ft | 498 kts | 208° |
| 2026-05-07 12:14 | 15.69563 | 4.42052 | 36807 ft | 498 kts | 208° |
| 2026-05-07 12:14 | 15.63199 | 4.39133 | 36805 ft | 498 kts | 207° |
| 2026-05-07 12:15 | 15.56841 | 4.36219 | 36804 ft | 498 kts | 207° |
| 2026-05-07 12:15 | 15.50522 | 4.33326 | 36807 ft | 499 kts | 207° |
| 2026-05-07 12:16 | 15.44166 | 4.30418 | 36808 ft | 499 kts | 207° |
| 2026-05-07 12:16 | 15.37800 | 4.27507 | 36802 ft | 499 kts | 207° |
| 2026-05-07 12:17 | 15.31479 | 4.24618 | 36806 ft | 499 kts | 207° |
| 2026-05-07 12:17 | 15.25075 | 4.21694 | 36807 ft | 500 kts | 207° |
| 2026-05-07 12:18 | 15.18747 | 4.18805 | 36807 ft | 500 kts | 207° |
| 2026-05-07 12:18 | 15.12373 | 4.15899 | 36802 ft | 500 kts | 207° |
| 2026-05-07 12:19 | 15.05990 | 4.12990 | 36802 ft | 500 kts | 207° |
| 2026-05-07 12:19 | 14.99598 | 4.10079 | 36800 ft | 500 kts | 206° |
| 2026-05-07 12:20 | 14.93260 | 4.07194 | 36802 ft | 500 kts | 206° |
| 2026-05-07 12:20 | 14.86869 | 4.04288 | 36800 ft | 501 kts | 206° |
| 2026-05-07 12:21 | 14.80483 | 4.01385 | 36803 ft | 501 kts | 206° |
| 2026-05-07 12:21 | 14.74089 | 3.98480 | 36807 ft | 501 kts | 206° |
| 2026-05-07 12:22 | 14.67700 | 3.95580 | 36804 ft | 501 kts | 206° |
| 2026-05-07 12:22 | 14.61353 | 3.92700 | 36812 ft | 501 kts | 206° |
| 2026-05-07 12:23 | 14.54962 | 3.89802 | 36810 ft | 501 kts | 206° |
| 2026-05-07 12:23 | 14.48568 | 3.86905 | 36812 ft | 501 kts | 206° |
| 2026-05-07 12:24 | 14.42164 | 3.84006 | 36811 ft | 501 kts | 206° |
| 2026-05-07 12:24 | 14.35773 | 3.81114 | 36815 ft | 501 kts | 206° |
| 2026-05-07 12:25 | 14.29409 | 3.78236 | 36818 ft | 502 kts | 206° |
| 2026-05-07 12:25 | 14.23017 | 3.75346 | 36821 ft | 502 kts | 206° |
| 2026-05-07 12:26 | 14.16617 | 3.72456 | 36820 ft | 502 kts | 205° |
| 2026-05-07 12:26 | 14.10245 | 3.69579 | 36823 ft | 502 kts | 205° |
| 2026-05-07 12:27 | 14.04923 | 3.67177 | 36827 ft | 501 kts | 205° |
| 2026-05-07 12:27 | 13.98524 | 3.64292 | 36826 ft | 501 kts | 205° |
| 2026-05-07 12:28 | 13.92126 | 3.61409 | 36828 ft | 501 kts | 205° |
| 2026-05-07 12:28 | 13.85726 | 3.58526 | 36833 ft | 501 kts | 205° |
| 2026-05-07 12:29 | 13.79337 | 3.55651 | 36831 ft | 500 kts | 205° |
| 2026-05-07 12:29 | 13.72988 | 3.52794 | 36836 ft | 500 kts | 205° |
| 2026-05-07 12:30 | 13.66615 | 3.49930 | 36837 ft | 500 kts | 205° |
| 2026-05-07 12:30 | 13.60234 | 3.47063 | 36835 ft | 500 kts | 205° |
| 2026-05-07 12:31 | 13.53849 | 3.44195 | 36837 ft | 500 kts | 205° |
| 2026-05-07 12:31 | 13.47503 | 3.41267 | 36841 ft | 499 kts | 206° |
| 2026-05-07 12:32 | 13.41213 | 3.38317 | 36840 ft | 499 kts | 206° |
| 2026-05-07 12:32 | 13.34884 | 3.35361 | 36841 ft | 499 kts | 206° |
| 2026-05-07 12:33 | 13.25389 | 3.30949 | 36839 ft | 499 kts | 206° |
| 2026-05-07 12:33 | 13.19084 | 3.28024 | 36840 ft | 499 kts | 206° |
| 2026-05-07 12:34 | 13.12752 | 3.25089 | 36839 ft | 499 kts | 206° |
| 2026-05-07 12:34 | 13.06424 | 3.22156 | 36837 ft | 498 kts | 206° |
| 2026-05-07 12:35 | 13.00090 | 3.19222 | 36837 ft | 498 kts | 206° |
| 2026-05-07 12:35 | 12.93764 | 3.16293 | 36837 ft | 498 kts | 206° |
| 2026-05-07 12:36 | 12.87488 | 3.13388 | 36839 ft | 498 kts | 206° |
| 2026-05-07 12:36 | 12.81161 | 3.10463 | 36836 ft | 498 kts | 206° |
| 2026-05-07 12:37 | 12.74840 | 3.07541 | 36833 ft | 498 kts | 206° |
| 2026-05-07 12:37 | 12.68547 | 3.04634 | 36833 ft | 498 kts | 205° |
| 2026-05-07 12:38 | 12.62226 | 3.01716 | 36831 ft | 498 kts | 205° |
| 2026-05-07 12:38 | 12.55907 | 2.98801 | 36831 ft | 497 kts | 205° |
| 2026-05-07 12:39 | 12.49585 | 2.95885 | 36835 ft | 497 kts | 205° |
| 2026-05-07 12:39 | 12.43315 | 2.92996 | 36832 ft | 497 kts | 205° |
| 2026-05-07 12:40 | 12.36996 | 2.90085 | 36832 ft | 497 kts | 205° |
| 2026-05-07 12:40 | 12.30670 | 2.87171 | 36833 ft | 497 kts | 205° |
| 2026-05-07 12:41 | 12.24397 | 2.84285 | 36835 ft | 497 kts | 205° |
| 2026-05-07 12:41 | 12.18074 | 2.81377 | 36835 ft | 497 kts | 205° |
| 2026-05-07 12:42 | 12.11755 | 2.78472 | 36834 ft | 497 kts | 205° |
| 2026-05-07 12:42 | 12.05477 | 2.75589 | 36834 ft | 497 kts | 205° |
| 2026-05-07 12:43 | 11.99155 | 2.72684 | 36834 ft | 497 kts | 205° |
| 2026-05-07 12:43 | 11.92829 | 2.69782 | 36838 ft | 497 kts | 205° |
| 2026-05-07 12:44 | 11.86544 | 2.66900 | 36836 ft | 497 kts | 205° |
| 2026-05-07 12:44 | 11.80210 | 2.63996 | 36837 ft | 497 kts | 205° |
| 2026-05-07 12:45 | 11.73887 | 2.61095 | 36839 ft | 498 kts | 205° |
| 2026-05-07 12:45 | 11.67594 | 2.58211 | 36836 ft | 498 kts | 205° |
| 2026-05-07 12:46 | 11.61264 | 2.55312 | 36833 ft | 498 kts | 205° |
| 2026-05-07 12:46 | 11.54930 | 2.52415 | 36833 ft | 498 kts | 205° |
| 2026-05-07 12:47 | 11.48587 | 2.49515 | 36834 ft | 499 kts | 205° |
| 2026-05-07 12:47 | 11.42242 | 2.46614 | 36834 ft | 499 kts | 205° |
| 2026-05-07 12:48 | 11.35890 | 2.43712 | 36834 ft | 500 kts | 205° |
| 2026-05-07 12:48 | 11.29577 | 2.40830 | 36834 ft | 500 kts | 205° |
| 2026-05-07 12:49 | 11.23210 | 2.37924 | 36832 ft | 500 kts | 205° |
| 2026-05-07 12:49 | 11.16852 | 2.35023 | 36832 ft | 501 kts | 205° |
| 2026-05-07 12:50 | 11.10468 | 2.32110 | 36832 ft | 501 kts | 205° |
| 2026-05-07 12:50 | 11.04120 | 2.29216 | 36831 ft | 502 kts | 205° |
| 2026-05-07 12:51 | 10.98102 | 2.25661 | 36835 ft | 500 kts | 218° |
| 2026-05-07 12:51 | 10.92644 | 2.21260 | 36835 ft | 500 kts | 220° |
| 2026-05-07 12:52 | 10.87277 | 2.16730 | 36832 ft | 501 kts | 220° |
| 2026-05-07 12:52 | 10.81936 | 2.12215 | 36838 ft | 501 kts | 220° |
| 2026-05-07 12:53 | 10.76556 | 2.07698 | 36839 ft | 501 kts | 220° |
| 2026-05-07 12:53 | 10.71199 | 2.03215 | 36842 ft | 501 kts | 220° |
| 2026-05-07 12:54 | 10.65808 | 1.98708 | 36837 ft | 501 kts | 220° |
| 2026-05-07 12:54 | 10.60416 | 1.94201 | 36845 ft | 501 kts | 220° |
| 2026-05-07 12:55 | 10.55023 | 1.89695 | 36847 ft | 501 kts | 220° |
| 2026-05-07 12:55 | 10.49629 | 1.85190 | 36848 ft | 501 kts | 220° |
| 2026-05-07 12:56 | 10.44236 | 1.80689 | 36853 ft | 501 kts | 220° |
| 2026-05-07 12:56 | 10.38883 | 1.76221 | 36854 ft | 501 kts | 220° |
| 2026-05-07 12:57 | 10.33478 | 1.71714 | 36853 ft | 502 kts | 220° |
| 2026-05-07 12:57 | 10.28071 | 1.67206 | 36858 ft | 502 kts | 220° |
| 2026-05-07 12:58 | 10.22700 | 1.62731 | 36856 ft | 502 kts | 220° |
| 2026-05-07 12:58 | 10.17296 | 1.58231 | 36861 ft | 502 kts | 220° |
| 2026-05-07 12:59 | 10.11894 | 1.53734 | 36858 ft | 502 kts | 220° |
| 2026-05-07 12:59 | 10.06492 | 1.49238 | 36860 ft | 502 kts | 220° |
| 2026-05-07 13:00 | 10.01089 | 1.44744 | 36862 ft | 501 kts | 220° |
| 2026-05-07 13:00 | 9.95711 | 1.40274 | 36865 ft | 501 kts | 220° |
| 2026-05-07 13:01 | 9.90301 | 1.35779 | 36895 ft | 501 kts | 220° |
| 2026-05-07 13:01 | 9.84900 | 1.31292 | 36927 ft | 501 kts | 220° |
| 2026-05-07 13:02 | 9.79500 | 1.26809 | 36953 ft | 501 kts | 219° |
| 2026-05-07 13:02 | 9.74131 | 1.22354 | 36975 ft | 501 kts | 220° |
| 2026-05-07 13:03 | 9.68732 | 1.17874 | 36979 ft | 501 kts | 219° |
| 2026-05-07 13:03 | 9.63328 | 1.13393 | 36963 ft | 501 kts | 219° |
| 2026-05-07 13:04 | 9.57966 | 1.08949 | 36941 ft | 501 kts | 219° |
| 2026-05-07 13:04 | 9.53470 | 1.05223 | 36917 ft | 501 kts | 219° |
| 2026-05-07 13:05 | 9.47132 | 1.00091 | 36878 ft | 501 kts | 213° |
| 2026-05-07 13:05 | 9.41871 | 0.97527 | 36864 ft | 501 kts | 202° |
| 2026-05-07 13:06 | 9.35366 | 0.94952 | 36865 ft | 502 kts | 201° |
| 2026-05-07 13:06 | 9.28878 | 0.92409 | 36869 ft | 502 kts | 201° |
| 2026-05-07 13:07 | 9.22358 | 0.89858 | 36868 ft | 502 kts | 201° |
| 2026-05-07 13:07 | 9.15823 | 0.87302 | 36868 ft | 502 kts | 201° |
| 2026-05-07 13:08 | 9.09332 | 0.84766 | 36864 ft | 502 kts | 201° |
| 2026-05-07 13:08 | 9.02809 | 0.82217 | 36870 ft | 502 kts | 201° |
| 2026-05-07 13:09 | 8.96278 | 0.79667 | 36868 ft | 502 kts | 201° |
| 2026-05-07 13:09 | 8.89754 | 0.77120 | 36871 ft | 502 kts | 201° |
| 2026-05-07 13:10 | 8.83266 | 0.74588 | 36872 ft | 502 kts | 201° |
| 2026-05-07 13:10 | 8.76741 | 0.72043 | 36872 ft | 502 kts | 201° |
| 2026-05-07 13:11 | 8.70246 | 0.69510 | 36872 ft | 503 kts | 201° |
| 2026-05-07 13:11 | 8.63700 | 0.66959 | 36873 ft | 503 kts | 201° |
| 2026-05-07 13:12 | 8.57142 | 0.64404 | 36876 ft | 504 kts | 201° |
| 2026-05-07 13:12 | 8.50635 | 0.61870 | 36878 ft | 504 kts | 201° |
| 2026-05-07 13:13 | 8.44070 | 0.59314 | 36879 ft | 505 kts | 201° |
| 2026-05-07 13:13 | 8.37508 | 0.56760 | 36881 ft | 505 kts | 201° |
| 2026-05-07 13:14 | 8.30987 | 0.54223 | 36881 ft | 505 kts | 201° |
| 2026-05-07 13:14 | 8.24401 | 0.51661 | 36882 ft | 506 kts | 201° |
| 2026-05-07 13:15 | 8.17827 | 0.49106 | 36881 ft | 506 kts | 201° |
| 2026-05-07 13:15 | 8.11236 | 0.46544 | 36885 ft | 507 kts | 201° |
| 2026-05-07 13:16 | 8.04684 | 0.43999 | 36886 ft | 507 kts | 201° |
| 2026-05-07 13:16 | 7.98099 | 0.41442 | 36889 ft | 507 kts | 201° |
| 2026-05-07 13:17 | 7.91505 | 0.38881 | 36890 ft | 507 kts | 201° |
| 2026-05-07 13:17 | 7.84905 | 0.36320 | 36889 ft | 508 kts | 201° |
| 2026-05-07 13:18 | 7.78296 | 0.33756 | 36890 ft | 508 kts | 201° |
| 2026-05-07 13:18 | 7.71724 | 0.31207 | 36889 ft | 508 kts | 201° |
| 2026-05-07 13:19 | 7.65169 | 0.28665 | 36713 ft | 498 kts | 201° |
| 2026-05-07 13:19 | 7.61956 | 0.27420 | 36476 ft | 492 kts | 201° |
| 2026-05-07 13:19 | 7.58747 | 0.26176 | 36217 ft | 492 kts | 201° |
| 2026-05-07 13:20 | 7.55569 | 0.24945 | 35744 ft | 490 kts | 200° |
| 2026-05-07 13:20 | 7.52381 | 0.23709 | 35133 ft | 490 kts | 200° |
| 2026-05-07 13:20 | 7.49190 | 0.22473 | 34462 ft | 493 kts | 200° |
| 2026-05-07 13:20 | 7.45987 | 0.21233 | 33732 ft | 496 kts | 200° |
| 2026-05-07 13:21 | 7.42739 | 0.19976 | 32927 ft | 499 kts | 200° |
| 2026-05-07 13:21 | 7.39485 | 0.18716 | 32187 ft | 501 kts | 200° |
| 2026-05-07 13:21 | 7.36215 | 0.17450 | 31411 ft | 504 kts | 200° |
| 2026-05-07 13:21 | 7.32971 | 0.16195 | 30640 ft | 506 kts | 200° |
| 2026-05-07 13:22 | 7.29671 | 0.14918 | 29818 ft | 510 kts | 200° |
| 2026-05-07 13:22 | 7.26343 | 0.13630 | 28911 ft | 512 kts | 200° |
| 2026-05-07 13:22 | 7.23013 | 0.12341 | 28275 ft | 509 kts | 199° |
| 2026-05-07 13:22 | 7.19719 | 0.11067 | 27699 ft | 505 kts | 199° |
| 2026-05-07 13:23 | 7.16485 | 0.09816 | 27121 ft | 502 kts | 199° |
| 2026-05-07 13:23 | 7.13231 | 0.08558 | 26539 ft | 498 kts | 199° |
| 2026-05-07 13:23 | 7.09997 | 0.07307 | 25953 ft | 495 kts | 199° |
| 2026-05-07 13:23 | 7.06781 | 0.06064 | 25374 ft | 492 kts | 199° |
| 2026-05-07 13:24 | 7.03593 | 0.04832 | 24801 ft | 489 kts | 199° |
| 2026-05-07 13:24 | 7.00416 | 0.03604 | 24237 ft | 487 kts | 199° |
| 2026-05-07 13:24 | 6.97257 | 0.02383 | 23678 ft | 484 kts | 199° |
| 2026-05-07 13:24 | 6.94160 | 0.01186 | 23056 ft | 481 kts | 199° |
| 2026-05-07 13:25 | 6.91052 | -0.00015 | 22470 ft | 476 kts | 199° |
| 2026-05-07 13:25 | 6.87978 | -0.01202 | 21918 ft | 471 kts | 199° |
| 2026-05-07 13:25 | 6.84928 | -0.02380 | 21366 ft | 466 kts | 199° |
| 2026-05-07 13:25 | 6.81907 | -0.03546 | 20819 ft | 462 kts | 199° |
| 2026-05-07 13:26 | 6.78923 | -0.04698 | 20270 ft | 457 kts | 199° |
| 2026-05-07 13:26 | 6.75965 | -0.05840 | 19721 ft | 453 kts | 199° |
| 2026-05-07 13:26 | 6.73025 | -0.06974 | 19161 ft | 450 kts | 199° |
| 2026-05-07 13:26 | 6.70108 | -0.08100 | 18616 ft | 447 kts | 199° |
| 2026-05-07 13:27 | 6.67210 | -0.09218 | 18053 ft | 444 kts | 199° |
| 2026-05-07 13:27 | 6.64288 | -0.10179 | 17404 ft | 438 kts | 190° |
| 2026-05-07 13:27 | 6.61273 | -0.10399 | 16699 ft | 433 kts | 174° |
| 2026-05-07 13:27 | 6.58284 | -0.10130 | 16095 ft | 428 kts | 171° |
| 2026-05-07 13:28 | 6.55362 | -0.09812 | 15544 ft | 424 kts | 171° |
| 2026-05-07 13:28 | 6.52443 | -0.09502 | 15002 ft | 420 kts | 171° |
| 2026-05-07 13:28 | 6.49537 | -0.09202 | 14446 ft | 416 kts | 171° |
| 2026-05-07 13:28 | 6.46661 | -0.08911 | 13903 ft | 413 kts | 170° |
| 2026-05-07 13:29 | 6.43810 | -0.08624 | 13298 ft | 409 kts | 170° |
| 2026-05-07 13:29 | 6.40988 | -0.08341 | 12758 ft | 404 kts | 170° |
| 2026-05-07 13:29 | 6.38236 | -0.08068 | 12221 ft | 400 kts | 170° |
| 2026-05-07 13:29 | 6.35473 | -0.07794 | 11688 ft | 395 kts | 170° |
| 2026-05-07 13:30 | 6.32747 | -0.07525 | 11145 ft | 390 kts | 169° |
| 2026-05-07 13:30 | 6.30063 | -0.07260 | 10764 ft | 383 kts | 169° |
| 2026-05-07 13:30 | 6.27463 | -0.07004 | 10648 ft | 367 kts | 169° |
| 2026-05-07 13:30 | 6.25002 | -0.06765 | 10534 ft | 352 kts | 169° |
| 2026-05-07 13:31 | 6.22605 | -0.06530 | 10389 ft | 339 kts | 169° |
| 2026-05-07 13:31 | 6.20296 | -0.06303 | 10222 ft | 326 kts | 168° |
| 2026-05-07 13:31 | 6.18080 | -0.06084 | 10097 ft | 313 kts | 168° |
| 2026-05-07 13:31 | 6.15941 | -0.05871 | 9948 ft | 303 kts | 168° |
| 2026-05-07 13:32 | 6.13871 | -0.05667 | 9679 ft | 297 kts | 168° |
| 2026-05-07 13:32 | 6.11824 | -0.05462 | 9318 ft | 294 kts | 168° |
| 2026-05-07 13:32 | 6.09794 | -0.05260 | 9021 ft | 292 kts | 169° |
| 2026-05-07 13:32 | 6.08461 | -0.05125 | 8872 ft | 290 kts | 169° |
| 2026-05-07 13:33 | 6.05770 | -0.04850 | 8327 ft | 292 kts | 170° |
| 2026-05-07 13:33 | 6.03742 | -0.04646 | 7911 ft | 292 kts | 171° |
| 2026-05-07 13:33 | 6.01722 | -0.04448 | 7541 ft | 291 kts | 171° |
| 2026-05-07 13:33 | 5.99705 | -0.04252 | 7185 ft | 289 kts | 171° |
| 2026-05-07 13:34 | 5.97717 | -0.04059 | 6840 ft | 287 kts | 172° |
| 2026-05-07 13:34 | 5.93761 | -0.03676 | 6122 ft | 284 kts | 174° |
| 2026-05-07 13:34 | 5.91811 | -0.03858 | 5868 ft | 282 kts | 193° |
| 2026-05-07 13:35 | 5.89953 | -0.04511 | 5464 ft | 284 kts | 201° |
| 2026-05-07 13:35 | 5.88136 | -0.05279 | 5078 ft | 281 kts | 202° |
| 2026-05-07 13:35 | 5.86341 | -0.06034 | 4604 ft | 278 kts | 202° |
| 2026-05-07 13:35 | 5.84568 | -0.06777 | 4187 ft | 276 kts | 202° |
| 2026-05-07 13:36 | 5.82800 | -0.07514 | 3832 ft | 274 kts | 202° |
| 2026-05-07 13:36 | 5.81057 | -0.08239 | 3597 ft | 267 kts | 202° |
| 2026-05-07 13:36 | 5.79385 | -0.08929 | 3543 ft | 252 kts | 202° |
| 2026-05-07 13:36 | 5.77804 | -0.09579 | 3450 ft | 240 kts | 202° |
| 2026-05-07 13:37 | 5.76284 | -0.10204 | 3224 ft | 231 kts | 202° |
| 2026-05-07 13:37 | 5.74836 | -0.10805 | 2934 ft | 219 kts | 203° |
| 2026-05-07 13:37 | 5.73470 | -0.11371 | 2668 ft | 206 kts | 202° |
| 2026-05-07 13:37 | 5.72185 | -0.11903 | 2395 ft | 195 kts | 202° |
| 2026-05-07 13:38 | 5.70949 | -0.12413 | 2130 ft | 188 kts | 203° |
| 2026-05-07 13:38 | 5.69779 | -0.12896 | 1886 ft | 175 kts | 204° |
| 2026-05-07 13:38 | 5.68709 | -0.13340 | 1679 ft | 160 kts | 202° |
| 2026-05-07 13:38 | 5.67719 | -0.13748 | 1478 ft | 148 kts | 201° |
| 2026-05-07 13:39 | 5.66779 | -0.14136 | 1297 ft | 146 kts | 203° |
| 2026-05-07 13:39 | 5.65851 | -0.14522 | 1109 ft | 143 kts | 201° |
| 2026-05-07 13:39 | 5.64911 | -0.14911 | 927 ft | 148 kts | 202° |
| 2026-05-07 13:39 | 5.63970 | -0.15300 | 740 ft | 145 kts | 201° |
| 2026-05-07 13:40 | 5.63032 | -0.15683 | 566 ft | 147 kts | 201° |
| 2026-05-07 13:40 | 5.62091 | -0.16077 | 357 ft | 145 kts | 202° |
| 2026-05-07 13:40 | 5.61163 | -0.16460 | 233 ft | 140 kts | 201° |
| 2026-05-07 13:40 | 5.60361 | -0.16789 | 228 ft | 107 kts | 202° |
| 2026-05-07 13:41 | 5.59785 | -0.17027 | 213 ft | 72 kts | 202° |
| 2026-05-07 13:41 | 5.59435 | -0.17173 | 211 ft | 36 kts | 202° |
| 2026-05-07 13:41 | 5.59270 | -0.17240 | 207 ft | 24 kts | 202° |
| 2026-05-07 13:41 | 5.59185 | -0.17369 | 205 ft | 25 kts | 283° |
| 2026-05-07 13:42 | 5.59325 | -0.17424 | 218 ft | 25 kts | 21° |
| 2026-05-07 13:42 | 5.59494 | -0.17356 | 220 ft | 26 kts | 22° |
| 2026-05-07 13:42 | 5.59662 | -0.17286 | 217 ft | 26 kts | 23° |
| 2026-05-07 13:42 | 5.59835 | -0.17214 | 218 ft | 27 kts | 22° |
| 2026-05-07 13:43 | 5.59950 | -0.17167 | 219 ft | 27 kts | 22° |
| 2026-05-07 13:43 | 5.60068 | -0.17148 | 217 ft | 9 kts | 324° |
| 2026-05-07 13:43 | 5.60100 | -0.17209 | 223 ft | 0 kts | 292° |